sensor_id;sensor_type;location;lat;lon;timestamp;temperature;humidity
2855;DHT22;1435;49.472;10.940;2023-02-01T00:04:28;5.80;99.90
2855;DHT22;1435;49.472;10.940;2023-02-01T00:09:32;5.80;99.90
2855;DHT22;1435;49.472;10.940;2023-02-01T00:14:34;5.80;99.90
2855;DHT22;1435;49.472;10.940;2023-02-01T00:19:38;5.80;99.90
2855;DHT22;1435;49.472;10.940;2023-02-01T00:24:41;5.80;99.90
2855;DHT22;1435;49.472;10.940;2023-02-01T00:29:43;5.90;99.90
2855;DHT22;1435;49.472;10.940;2023-02-01T00:34:45;5.90;99.90
2855;DHT22;1435;49.472;10.940;2023-02-01T00:39:49;5.90;99.90
2855;DHT22;1435;49.472;10.940;2023-02-01T00:44:51;5.90;99.90
2855;DHT22;1435;49.472;10.940;2023-02-01T00:49:52;5.90;99.90
2855;DHT22;1435;49.472;10.940;2023-02-01T00:54:55;5.90;99.90
2855;DHT22;1435;49.472;10.940;2023-02-01T00:59:57;6.00;99.90
2855;DHT22;1435;49.472;10.940;2023-02-01T01:04:59;6.00;99.90
2855;DHT22;1435;49.472;10.940;2023-02-01T01:10:02;6.10;99.90
2855;DHT22;1435;49.472;10.940;2023-02-01T01:15:05;6.10;99.90
2855;DHT22;1435;49.472;10.940;2023-02-01T01:20:08;6.00;99.90
2855;DHT22;1435;49.472;10.940;2023-02-01T01:25:12;5.90;99.90
2855;DHT22;1435;49.472;10.940;2023-02-01T01:30:14;6.00;99.90
2855;DHT22;1435;49.472;10.940;2023-02-01T01:35:15;6.00;99.90
2855;DHT22;1435;49.472;10.940;2023-02-01T01:40:19;6.10;99.90
2855;DHT22;1435;49.472;10.940;2023-02-01T01:45:23;6.00;99.90
2855;DHT22;1435;49.472;10.940;2023-02-01T01:50:28;6.00;99.90
2855;DHT22;1435;49.472;10.940;2023-02-01T01:55:34;6.10;99.90
2855;DHT22;1435;49.472;10.940;2023-02-01T02:00:37;6.00;99.90
2855;DHT22;1435;49.472;10.940;2023-02-01T02:05:39;6.00;99.90
2855;DHT22;1435;49.472;10.940;2023-02-01T02:10:43;6.10;99.90
2855;DHT22;1435;49.472;10.940;2023-02-01T02:21:48;6.10;99.90
2855;DHT22;1435;49.472;10.940;2023-02-01T02:32:53;6.10;99.90
2855;DHT22;1435;49.472;10.940;2023-02-01T02:38:11;6.10;99.90
2855;DHT22;1435;49.472;10.940;2023-02-01T02:43:21;6.10;99.90
2855;DHT22;1435;49.472;10.940;2023-02-01T02:48:46;6.10;99.90
2855;DHT22;1435;49.472;10.940;2023-02-01T02:53:56;6.20;99.90
2855;DHT22;1435;49.472;10.940;2023-02-01T02:59:20;6.20;99.90
2855;DHT22;1435;49.472;10.940;2023-02-01T03:04:41;6.30;99.90
2855;DHT22;1435;49.472;10.940;2023-02-01T03:09:46;6.30;99.90
2855;DHT22;1435;49.472;10.940;2023-02-01T03:14:52;6.30;99.90
2855;DHT22;1435;49.472;10.940;2023-02-01T03:19:58;6.30;99.90
2855;DHT22;1435;49.472;10.940;2023-02-01T03:25:07;6.20;99.90
2855;DHT22;1435;49.472;10.940;2023-02-01T03:30:14;6.20;99.90
2855;DHT22;1435;49.472;10.940;2023-02-01T03:35:19;6.20;99.90
2855;DHT22;1435;49.472;10.940;2023-02-01T03:40:27;6.20;99.90
2855;DHT22;1435;49.472;10.940;2023-02-01T03:45:34;6.30;99.90
2855;DHT22;1435;49.472;10.940;2023-02-01T03:50:44;6.30;99.90
2855;DHT22;1435;49.472;10.940;2023-02-01T03:55:50;6.30;99.90
2855;DHT22;1435;49.472;10.940;2023-02-01T04:00:54;6.30;99.90
2855;DHT22;1435;49.472;10.940;2023-02-01T04:05:56;6.30;99.90
2855;DHT22;1435;49.472;10.940;2023-02-01T04:10:59;6.20;99.90
2855;DHT22;1435;49.472;10.940;2023-02-01T04:16:01;6.20;99.90
2855;DHT22;1435;49.472;10.940;2023-02-01T04:21:03;6.20;99.90
2855;DHT22;1435;49.472;10.940;2023-02-01T04:26:06;6.30;99.90
2855;DHT22;1435;49.472;10.940;2023-02-01T04:31:08;6.10;99.90
2855;DHT22;1435;49.472;10.940;2023-02-01T04:36:10;6.10;99.90
2855;DHT22;1435;49.472;10.940;2023-02-01T04:41:13;6.20;99.90
2855;DHT22;1435;49.472;10.940;2023-02-01T04:46:15;6.20;99.90
2855;DHT22;1435;49.472;10.940;2023-02-01T04:51:16;6.30;99.90
2855;DHT22;1435;49.472;10.940;2023-02-01T04:56:19;6.30;99.90
2855;DHT22;1435;49.472;10.940;2023-02-01T05:01:21;6.30;99.90
2855;DHT22;1435;49.472;10.940;2023-02-01T05:06:24;6.20;99.90
2855;DHT22;1435;49.472;10.940;2023-02-01T05:11:27;6.10;99.90
2855;DHT22;1435;49.472;10.940;2023-02-01T05:16:47;6.10;99.90
2855;DHT22;1435;49.472;10.940;2023-02-01T05:21:49;5.90;99.90
2855;DHT22;1435;49.472;10.940;2023-02-01T05:26:52;6.00;99.90
2855;DHT22;1435;49.472;10.940;2023-02-01T05:31:54;6.00;99.90
2855;DHT22;1435;49.472;10.940;2023-02-01T05:36:56;6.00;99.90
2855;DHT22;1435;49.472;10.940;2023-02-01T05:41:59;6.00;99.90
2855;DHT22;1435;49.472;10.940;2023-02-01T05:47:00;6.10;99.90
2855;DHT22;1435;49.472;10.940;2023-02-01T05:52:02;6.10;99.90
2855;DHT22;1435;49.472;10.940;2023-02-01T05:57:06;6.20;99.90
2855;DHT22;1435;49.472;10.940;2023-02-01T06:02:08;6.20;99.90
2855;DHT22;1435;49.472;10.940;2023-02-01T06:07:10;6.10;99.90
2855;DHT22;1435;49.472;10.940;2023-02-01T06:12:14;6.10;99.90
2855;DHT22;1435;49.472;10.940;2023-02-01T06:17:16;6.10;99.90
2855;DHT22;1435;49.472;10.940;2023-02-01T06:22:17;6.00;99.90
2855;DHT22;1435;49.472;10.940;2023-02-01T06:27:20;5.90;99.90
2855;DHT22;1435;49.472;10.940;2023-02-01T06:32:22;5.90;99.90
2855;DHT22;1435;49.472;10.940;2023-02-01T06:37:25;5.80;99.90
2855;DHT22;1435;49.472;10.940;2023-02-01T06:42:29;5.90;99.90
2855;DHT22;1435;49.472;10.940;2023-02-01T06:47:30;6.00;99.90
2855;DHT22;1435;49.472;10.940;2023-02-01T06:52:32;5.90;99.90
2855;DHT22;1435;49.472;10.940;2023-02-01T06:57:35;5.80;99.90
2855;DHT22;1435;49.472;10.940;2023-02-01T07:02:37;5.80;99.90
2855;DHT22;1435;49.472;10.940;2023-02-01T07:07:40;5.80;99.90
2855;DHT22;1435;49.472;10.940;2023-02-01T07:12:43;5.90;99.90
2855;DHT22;1435;49.472;10.940;2023-02-01T07:17:45;5.80;99.90
2855;DHT22;1435;49.472;10.940;2023-02-01T07:22:47;5.80;99.90
2855;DHT22;1435;49.472;10.940;2023-02-01T07:27:50;5.80;99.90
2855;DHT22;1435;49.472;10.940;2023-02-01T07:32:52;5.80;99.90
2855;DHT22;1435;49.472;10.940;2023-02-01T07:37:54;5.80;99.90
2855;DHT22;1435;49.472;10.940;2023-02-01T07:42:59;5.90;99.90
2855;DHT22;1435;49.472;10.940;2023-02-01T07:48:01;5.90;99.90
2855;DHT22;1435;49.472;10.940;2023-02-01T07:53:03;5.90;99.90
2855;DHT22;1435;49.472;10.940;2023-02-01T07:58:06;5.90;99.90
2855;DHT22;1435;49.472;10.940;2023-02-01T08:03:08;5.90;99.90
2855;DHT22;1435;49.472;10.940;2023-02-01T08:08:09;6.00;99.90
2855;DHT22;1435;49.472;10.940;2023-02-01T08:13:12;5.90;99.90
2855;DHT22;1435;49.472;10.940;2023-02-01T08:18:14;5.80;99.90
2855;DHT22;1435;49.472;10.940;2023-02-01T08:23:18;5.80;99.90
2855;DHT22;1435;49.472;10.940;2023-02-01T08:28:21;5.80;99.90
2855;DHT22;1435;49.472;10.940;2023-02-01T08:33:24;5.80;99.90
2855;DHT22;1435;49.472;10.940;2023-02-01T08:38:25;5.80;99.90
2855;DHT22;1435;49.472;10.940;2023-02-01T08:43:28;5.80;99.90
2855;DHT22;1435;49.472;10.940;2023-02-01T08:48:30;5.90;99.90
2855;DHT22;1435;49.472;10.940;2023-02-01T08:53:32;6.00;99.90
2855;DHT22;1435;49.472;10.940;2023-02-01T08:58:35;6.00;99.90
2855;DHT22;1435;49.472;10.940;2023-02-01T09:03:37;6.10;99.90
2855;DHT22;1435;49.472;10.940;2023-02-01T09:08:39;6.10;99.90
2855;DHT22;1435;49.472;10.940;2023-02-01T09:13:42;6.10;99.90
2855;DHT22;1435;49.472;10.940;2023-02-01T09:18:44;6.20;99.90
2855;DHT22;1435;49.472;10.940;2023-02-01T09:23:46;6.20;99.90
2855;DHT22;1435;49.472;10.940;2023-02-01T09:28:50;6.10;99.90
2855;DHT22;1435;49.472;10.940;2023-02-01T09:33:52;5.90;99.90
2855;DHT22;1435;49.472;10.940;2023-02-01T09:38:53;5.60;99.90
2855;DHT22;1435;49.472;10.940;2023-02-01T09:44:05;5.60;99.90
2855;DHT22;1435;49.472;10.940;2023-02-01T09:49:13;5.60;99.90
2855;DHT22;1435;49.472;10.940;2023-02-01T09:54:19;5.70;99.90
2855;DHT22;1435;49.472;10.940;2023-02-01T09:59:32;5.60;99.90
2855;DHT22;1435;49.472;10.940;2023-02-01T10:04:36;5.60;99.90
2855;DHT22;1435;49.472;10.940;2023-02-01T10:09:58;5.70;99.90
2855;DHT22;1435;49.472;10.940;2023-02-01T10:15:15;5.80;99.90
2855;DHT22;1435;49.472;10.940;2023-02-01T10:20:24;5.90;99.90
2855;DHT22;1435;49.472;10.940;2023-02-01T10:25:33;5.90;99.90
2855;DHT22;1435;49.472;10.940;2023-02-01T10:30:41;6.00;99.90
2855;DHT22;1435;49.472;10.940;2023-02-01T10:35:45;6.10;99.90
2855;DHT22;1435;49.472;10.940;2023-02-01T10:40:47;6.10;99.90
2855;DHT22;1435;49.472;10.940;2023-02-01T10:45:51;6.10;99.90
2855;DHT22;1435;49.472;10.940;2023-02-01T10:50:56;6.10;99.90
2855;DHT22;1435;49.472;10.940;2023-02-01T10:56:05;6.30;99.90
2855;DHT22;1435;49.472;10.940;2023-02-01T11:01:10;6.20;99.90
2855;DHT22;1435;49.472;10.940;2023-02-01T11:06:28;6.10;99.90
2855;DHT22;1435;49.472;10.940;2023-02-01T11:11:31;6.30;99.90
2855;DHT22;1435;49.472;10.940;2023-02-01T11:16:36;6.30;99.90
2855;DHT22;1435;49.472;10.940;2023-02-01T11:21:38;6.30;99.90
2855;DHT22;1435;49.472;10.940;2023-02-01T11:26:44;6.30;99.90
2855;DHT22;1435;49.472;10.940;2023-02-01T11:31:47;6.30;99.90
2855;DHT22;1435;49.472;10.940;2023-02-01T11:36:50;6.30;99.90
2855;DHT22;1435;49.472;10.940;2023-02-01T11:42:05;6.30;99.90
2855;DHT22;1435;49.472;10.940;2023-02-01T11:47:24;6.40;99.90
2855;DHT22;1435;49.472;10.940;2023-02-01T11:52:37;6.50;99.90
2855;DHT22;1435;49.472;10.940;2023-02-01T11:57:51;6.60;99.90
2855;DHT22;1435;49.472;10.940;2023-02-01T12:03:22;6.50;99.90
2855;DHT22;1435;49.472;10.940;2023-02-01T12:08:40;6.50;99.90
2855;DHT22;1435;49.472;10.940;2023-02-01T12:13:52;6.40;99.90
2855;DHT22;1435;49.472;10.940;2023-02-01T12:19:21;6.50;99.90
2855;DHT22;1435;49.472;10.940;2023-02-01T12:24:48;6.40;99.90
2855;DHT22;1435;49.472;10.940;2023-02-01T12:30:16;6.50;99.90
2855;DHT22;1435;49.472;10.940;2023-02-01T12:41:06;6.60;99.90
2855;DHT22;1435;49.472;10.940;2023-02-01T12:46:12;6.60;99.90
2855;DHT22;1435;49.472;10.940;2023-02-01T12:51:21;6.60;99.90
2855;DHT22;1435;49.472;10.940;2023-02-01T12:56:28;6.60;99.90
2855;DHT22;1435;49.472;10.940;2023-02-01T13:01:34;6.40;99.90
2855;DHT22;1435;49.472;10.940;2023-02-01T13:06:41;6.50;99.90
2855;DHT22;1435;49.472;10.940;2023-02-01T13:11:45;6.70;99.90
2855;DHT22;1435;49.472;10.940;2023-02-01T13:16:51;6.60;99.90
2855;DHT22;1435;49.472;10.940;2023-02-01T13:21:57;6.70;99.90
2855;DHT22;1435;49.472;10.940;2023-02-01T13:27:02;6.70;99.90
2855;DHT22;1435;49.472;10.940;2023-02-01T13:32:25;6.60;99.90
2855;DHT22;1435;49.472;10.940;2023-02-01T13:37:56;6.70;99.90
2855;DHT22;1435;49.472;10.940;2023-02-01T13:43:05;6.60;99.90
2855;DHT22;1435;49.472;10.940;2023-02-01T13:48:19;6.50;99.90
2855;DHT22;1435;49.472;10.940;2023-02-01T13:53:27;6.50;99.90
2855;DHT22;1435;49.472;10.940;2023-02-01T13:58:33;6.60;99.90
2855;DHT22;1435;49.472;10.940;2023-02-01T14:03:45;6.70;99.90
2855;DHT22;1435;49.472;10.940;2023-02-01T14:09:12;6.80;99.90
2855;DHT22;1435;49.472;10.940;2023-02-01T14:14:44;6.70;99.90
2855;DHT22;1435;49.472;10.940;2023-02-01T14:19:46;6.90;99.90
2855;DHT22;1435;49.472;10.940;2023-02-01T14:24:51;6.80;99.90
2855;DHT22;1435;49.472;10.940;2023-02-01T14:29:57;6.80;99.90
2855;DHT22;1435;49.472;10.940;2023-02-01T14:35:01;6.90;99.90
2855;DHT22;1435;49.472;10.940;2023-02-01T14:40:14;6.90;99.90
2855;DHT22;1435;49.472;10.940;2023-02-01T14:45:46;6.80;99.90
2855;DHT22;1435;49.472;10.940;2023-02-01T14:50:50;6.90;99.90
2855;DHT22;1435;49.472;10.940;2023-02-01T14:55:57;6.70;99.90
2855;DHT22;1435;49.472;10.940;2023-02-01T15:01:03;6.80;99.90
2855;DHT22;1435;49.472;10.940;2023-02-01T15:06:25;6.70;99.90
2855;DHT22;1435;49.472;10.940;2023-02-01T15:11:29;6.50;99.90
2855;DHT22;1435;49.472;10.940;2023-02-01T15:16:30;6.60;99.90
2855;DHT22;1435;49.472;10.940;2023-02-01T15:21:43;6.60;99.90
2855;DHT22;1435;49.472;10.940;2023-02-01T15:26:46;6.60;99.90
2855;DHT22;1435;49.472;10.940;2023-02-01T15:31:50;6.60;99.90
2855;DHT22;1435;49.472;10.940;2023-02-01T15:36:52;6.60;99.90
2855;DHT22;1435;49.472;10.940;2023-02-01T15:42:12;6.70;99.90
2855;DHT22;1435;49.472;10.940;2023-02-01T15:47:17;6.70;99.90
2855;DHT22;1435;49.472;10.940;2023-02-01T15:52:23;6.70;99.90
2855;DHT22;1435;49.472;10.940;2023-02-01T15:57:29;6.60;99.90
2855;DHT22;1435;49.472;10.940;2023-02-01T16:02:34;6.40;99.90
2855;DHT22;1435;49.472;10.940;2023-02-01T16:07:38;6.40;99.90
2855;DHT22;1435;49.472;10.940;2023-02-01T16:12:47;6.40;99.90
2855;DHT22;1435;49.472;10.940;2023-02-01T16:17:48;6.40;99.90
2855;DHT22;1435;49.472;10.940;2023-02-01T16:22:50;6.50;99.90
2855;DHT22;1435;49.472;10.940;2023-02-01T16:27:53;6.40;99.90
2855;DHT22;1435;49.472;10.940;2023-02-01T16:32:56;6.50;99.90
2855;DHT22;1435;49.472;10.940;2023-02-01T16:37:59;6.50;99.90
2855;DHT22;1435;49.472;10.940;2023-02-01T16:43:02;6.40;99.90
2855;DHT22;1435;49.472;10.940;2023-02-01T16:48:04;6.40;99.90
2855;DHT22;1435;49.472;10.940;2023-02-01T16:53:07;6.40;99.90
2855;DHT22;1435;49.472;10.940;2023-02-01T16:58:11;6.40;99.90
2855;DHT22;1435;49.472;10.940;2023-02-01T17:03:14;6.40;99.90
2855;DHT22;1435;49.472;10.940;2023-02-01T17:08:18;6.40;99.90
2855;DHT22;1435;49.472;10.940;2023-02-01T17:13:24;6.50;99.90
2855;DHT22;1435;49.472;10.940;2023-02-01T17:18:28;6.40;99.90
2855;DHT22;1435;49.472;10.940;2023-02-01T17:23:32;6.50;99.90
2855;DHT22;1435;49.472;10.940;2023-02-01T17:28:35;6.50;99.90
2855;DHT22;1435;49.472;10.940;2023-02-01T17:33:37;6.50;99.90
2855;DHT22;1435;49.472;10.940;2023-02-01T17:38:39;6.40;99.90
2855;DHT22;1435;49.472;10.940;2023-02-01T17:43:42;6.50;99.90
2855;DHT22;1435;49.472;10.940;2023-02-01T17:48:43;6.50;99.90
2855;DHT22;1435;49.472;10.940;2023-02-01T17:53:46;6.40;99.90
2855;DHT22;1435;49.472;10.940;2023-02-01T17:58:49;6.50;99.90
2855;DHT22;1435;49.472;10.940;2023-02-01T18:03:50;6.50;99.90
2855;DHT22;1435;49.472;10.940;2023-02-01T18:08:52;6.50;99.90
2855;DHT22;1435;49.472;10.940;2023-02-01T18:13:56;6.50;99.90
2855;DHT22;1435;49.472;10.940;2023-02-01T18:18:58;6.40;99.90
2855;DHT22;1435;49.472;10.940;2023-02-01T18:24:01;6.50;99.90
2855;DHT22;1435;49.472;10.940;2023-02-01T18:29:05;6.50;99.90
2855;DHT22;1435;49.472;10.940;2023-02-01T18:34:09;6.50;99.90
2855;DHT22;1435;49.472;10.940;2023-02-01T18:39:16;6.60;99.90
2855;DHT22;1435;49.472;10.940;2023-02-01T18:44:19;6.60;99.90
2855;DHT22;1435;49.472;10.940;2023-02-01T18:49:21;6.60;99.90
2855;DHT22;1435;49.472;10.940;2023-02-01T18:54:22;6.60;99.90
2855;DHT22;1435;49.472;10.940;2023-02-01T18:59:26;6.60;99.90
2855;DHT22;1435;49.472;10.940;2023-02-01T19:04:28;6.50;99.90
2855;DHT22;1435;49.472;10.940;2023-02-01T19:09:30;6.60;99.90
2855;DHT22;1435;49.472;10.940;2023-02-01T19:14:33;6.60;99.90
2855;DHT22;1435;49.472;10.940;2023-02-01T19:19:35;6.50;99.90
2855;DHT22;1435;49.472;10.940;2023-02-01T19:24:38;6.60;99.90
2855;DHT22;1435;49.472;10.940;2023-02-01T19:29:41;6.50;99.90
2855;DHT22;1435;49.472;10.940;2023-02-01T19:34:45;6.40;99.90
2855;DHT22;1435;49.472;10.940;2023-02-01T19:39:47;6.60;99.90
2855;DHT22;1435;49.472;10.940;2023-02-01T19:44:50;6.60;99.90
2855;DHT22;1435;49.472;10.940;2023-02-01T19:49:52;6.60;99.90
2855;DHT22;1435;49.472;10.940;2023-02-01T19:54:53;6.70;99.90
2855;DHT22;1435;49.472;10.940;2023-02-01T19:59:57;6.60;99.90
2855;DHT22;1435;49.472;10.940;2023-02-01T20:04:58;6.60;99.90
2855;DHT22;1435;49.472;10.940;2023-02-01T20:10:00;6.60;99.90
2855;DHT22;1435;49.472;10.940;2023-02-01T20:15:05;6.60;99.90
2855;DHT22;1435;49.472;10.940;2023-02-01T20:20:09;6.60;99.90
2855;DHT22;1435;49.472;10.940;2023-02-01T20:25:12;6.70;99.90
2855;DHT22;1435;49.472;10.940;2023-02-01T20:30:15;6.70;99.90
2855;DHT22;1435;49.472;10.940;2023-02-01T20:35:19;6.50;99.90
2855;DHT22;1435;49.472;10.940;2023-02-01T20:40:21;6.60;99.90
2855;DHT22;1435;49.472;10.940;2023-02-01T20:45:24;6.60;99.90
2855;DHT22;1435;49.472;10.940;2023-02-01T20:50:26;6.60;99.90
2855;DHT22;1435;49.472;10.940;2023-02-01T20:55:28;6.60;99.90
2855;DHT22;1435;49.472;10.940;2023-02-01T21:00:32;6.60;99.90
2855;DHT22;1435;49.472;10.940;2023-02-01T21:05:34;6.50;99.90
2855;DHT22;1435;49.472;10.940;2023-02-01T21:10:40;6.50;99.90
2855;DHT22;1435;49.472;10.940;2023-02-01T21:15:44;6.50;99.90
2855;DHT22;1435;49.472;10.940;2023-02-01T21:20:46;6.50;99.90
2855;DHT22;1435;49.472;10.940;2023-02-01T21:25:48;6.50;99.90
2855;DHT22;1435;49.472;10.940;2023-02-01T21:30:51;6.60;99.90
2855;DHT22;1435;49.472;10.940;2023-02-01T21:35:54;6.60;99.90
2855;DHT22;1435;49.472;10.940;2023-02-01T21:40:56;6.60;99.90
2855;DHT22;1435;49.472;10.940;2023-02-01T21:46:17;6.70;99.90
2855;DHT22;1435;49.472;10.940;2023-02-01T21:51:18;6.70;99.90
2855;DHT22;1435;49.472;10.940;2023-02-01T21:56:21;6.70;99.90
2855;DHT22;1435;49.472;10.940;2023-02-01T22:01:24;6.60;99.90
2855;DHT22;1435;49.472;10.940;2023-02-01T22:06:27;6.50;99.90
2855;DHT22;1435;49.472;10.940;2023-02-01T22:11:29;6.40;99.90
2855;DHT22;1435;49.472;10.940;2023-02-01T22:16:32;6.40;99.90
2855;DHT22;1435;49.472;10.940;2023-02-01T22:21:34;6.30;99.90
2855;DHT22;1435;49.472;10.940;2023-02-01T22:26:37;6.30;99.90
2855;DHT22;1435;49.472;10.940;2023-02-01T22:31:40;6.30;99.90
2855;DHT22;1435;49.472;10.940;2023-02-01T22:36:42;6.20;99.90
2855;DHT22;1435;49.472;10.940;2023-02-01T22:41:44;6.30;99.90
2855;DHT22;1435;49.472;10.940;2023-02-01T22:46:47;6.30;99.90
2855;DHT22;1435;49.472;10.940;2023-02-01T22:51:49;6.30;99.90
2855;DHT22;1435;49.472;10.940;2023-02-01T22:56:51;6.30;99.90
2855;DHT22;1435;49.472;10.940;2023-02-01T23:01:54;6.40;99.90
2855;DHT22;1435;49.472;10.940;2023-02-01T23:06:56;6.40;99.90
2855;DHT22;1435;49.472;10.940;2023-02-01T23:11:59;6.40;99.90
2855;DHT22;1435;49.472;10.940;2023-02-01T23:17:02;6.50;99.90
2855;DHT22;1435;49.472;10.940;2023-02-01T23:22:04;6.40;99.90
2855;DHT22;1435;49.472;10.940;2023-02-01T23:27:06;6.50;99.90
2855;DHT22;1435;49.472;10.940;2023-02-01T23:32:09;6.50;99.90
2855;DHT22;1435;49.472;10.940;2023-02-01T23:37:11;6.60;99.90
2855;DHT22;1435;49.472;10.940;2023-02-01T23:42:12;6.60;99.90
2855;DHT22;1435;49.472;10.940;2023-02-01T23:47:15;6.50;99.90
2855;DHT22;1435;49.472;10.940;2023-02-01T23:52:17;6.60;99.90
2855;DHT22;1435;49.472;10.940;2023-02-01T23:57:19;6.60;99.90
